Main page
METAR-TAF:

METAR-TAF

Airports :

Tehran, Iran

Mehrabad International Airport

latitude: 35-41N, longitude: 051-21E, elevation: 1204 m

Current weather observation

The report was made 24 minutes ago, at 11:30 UTC
Wind 10 kt from the West/Southwest
Temperature 34°C
Humidity 13%
Pressure 1013 hPa
Visibility 10 km or more
Few clouds at a height of 4000 ft

METAR: OIII 211130Z 24010KT 9999 FEW040 34/02 Q1012 A2991 NOSIG

Time: 16:24 (11:54 UTC)

Forecast

The report was made 54 minutes ago, at 11:00 UTC
Forecast valid from 21 at 12 UTC to 22 at 18 UTC
Wind 10 kt from the East/Southeast
Visibility: 8000 m
Few clouds at a height of 4000 ft

TAF: OIII 211100Z 2112/2218 12005MPS 8000 FEW040

Weather observations and forecasts of more than 4000 airports (METAR and TAF reports).

The available stations are represented by yellow and red dots on the map.

Hover mouse over dot to see the name of the station.

Then click to see weather observations and forecasts.

To change the map : click on the green buttons with a black cross to zoom in, on the green button with a dash to zoom out, or on the green arrows for adjacent maps.


METAR-TAF: